METAR Data
IDs: Format: Raw Decoded Include TAF

Data at: 0239 UTC 29 May 2022

VTCC 290230Z VRB03KT 9999 FEW035 30/23 Q1006 NOSIG